Weather reports worldwide

Advertisment
Beitem, Belgium (6414): temperature & dewpoint: 18.10.2020 00:00:00 - 24.10.2020 00:00:00 (CEST)Beitem, Belgium (6414): wind speed & gusts: 18.10.2020 00:00:00 - 24.10.2020 00:00:00 (CEST)Beitem, Belgium (6414): wind direction: 18.10.2020 00:00:00 - 24.10.2020 00:00:00 (CEST)Beitem, Belgium (6414): reduced air pressure: 18.10.2020 00:00:00 - 24.10.2020 00:00:00 (CEST)Beitem, Belgium (6414): sunshine duration: 18.10.2020 00:00:00 - 24.10.2020 00:00:00 (CEST)Beitem, Belgium (6414): precipitation: 18.10.2020 00:00:00 - 24.10.2020 00:00:00 (CEST)
Date & Time tt [°C] td [°C] ff [km/h] ff [kn] fx [km/h] fx [kn] dd ppp [hPa] sd [min] rr [mm]
24.10.2020 00:00:00 - - - - - - - - - -
23.10.2020 23:00:00 11,9 11,1 11 6 19 10 SSW 1012,5 0 0,0
23.10.2020 22:00:00 13,1 12,4 11 6 25 13 SW 1011,9 0 0,0
23.10.2020 21:00:00 13,4 12,4 15 8 34 19 SW 1011,5 0 0,3
23.10.2020 20:00:00 13,7 11,6 11 6 21 12 SW 1010,9 0 0,0
23.10.2020 19:00:00 14,5 11,4 14 8 26 14 SW 1010,5 9 0,0
23.10.2020 18:00:00 15,3 11,3 14 8 30 16 SW 1010,1 3 0,0
23.10.2020 17:00:00 16,4 11,3 18 10 34 19 WSW 1010,2 26 0,0
23.10.2020 16:00:00 17,3 12,3 16 9 32 18 SW 1009,9 54 0,0
23.10.2020 15:00:00 17,1 13,9 16 8 33 18 SSW 1010,1 53 0,0
23.10.2020 14:00:00 14,9 13,4 18 10 27 15 SSW 1010,5 53 0,0
23.10.2020 13:00:00 13,9 13,9 15 8 21 12 SSW 1010,7 16 0,0
23.10.2020 12:00:00 12,6 12,6 10 5 18 10 SSW 1011,1 4 0,0
23.10.2020 11:00:00 11,6 11,6 10 6 16 9 SSW 1011,0 1 0,0
23.10.2020 10:00:00 10,8 10,8 6 4 14 8 S 1010,7 0 0,0
23.10.2020 09:00:00 10,0 10,0 8 5 14 8 S 1010,9 0 0,0
23.10.2020 08:00:00 10,1 10,1 7 4 14 7 S 1010,5 0 0,0
23.10.2020 07:00:00 9,4 9,4 5 3 9 5 S 1010,8 0 0,0
23.10.2020 06:00:00 8,7 8,7 6 3 9 5 SSE 1011,1 0 0,0
23.10.2020 05:00:00 8,5 8,5 4 2 10 6 SE 1011,7 0 0,0
23.10.2020 04:00:00 9,0 9,0 9 5 10 6 SSE 1011,9 0 0,0
23.10.2020 03:00:00 8,0 8,0 4 2 8 4 S 1012,6 0 0,0
23.10.2020 02:00:00 8,2 8,2 0 0 7 4 N 1012,7 0 0,0
23.10.2020 01:00:00 8,8 8,8 0 0 9 5 N 1012,7 0 0,0
23.10.2020 00:00:00 9,9 9,9 6 3 8 5 S 1012,8 0 0,0
22.10.2020 23:00:00 9,3 9,3 4 2 8 5 SSW 1012,8 0 0,0
22.10.2020 22:00:00 10,1 10,1 0 0 5 3 N 1012,5 0 0,0
22.10.2020 21:00:00 11,9 11,5 5 3 9 5 SSW 1012,4 0 0,0
22.10.2020 20:00:00 13,0 11,7 7 4 10 5 SW 1012,1 0 0,0
22.10.2020 19:00:00 13,9 11,7 8 4 16 9 SSW 1011,8 28 0,0
22.10.2020 18:00:00 15,9 12,2 10 5 27 15 SW 1011,3 51 0,0
22.10.2020 17:00:00 15,9 11,5 15 8 29 16 SW 1011,2 53 0,0
22.10.2020 16:00:00 16,5 12,2 16 9 27 15 SW 1011,1 43 0,0
22.10.2020 15:00:00 15,8 12,9 15 8 27 15 SSW 1011,2 20 0,0
22.10.2020 14:00:00 16,4 13,4 14 8 24 13 SSW 1011,6 14 0,0
22.10.2020 13:00:00 15,1 12,4 9 5 22 12 SW 1012,1 2 0,0
22.10.2020 12:00:00 14,7 12,2 13 7 21 11 S 1011,6 7 0,0
22.10.2020 11:00:00 13,8 12,2 11 6 21 12 SSW 1011,9 18 0,0
22.10.2020 10:00:00 12,7 11,5 13 7 18 10 SSW 1011,5 12 0,0
22.10.2020 09:00:00 11,2 10,5 9 5 18 10 SSW 1010,8 0 0,0
22.10.2020 08:00:00 11,2 10,8 11 6 18 10 SSW 1009,8 0 0,0
22.10.2020 07:00:00 11,7 11,3 13 7 21 12 SSW 1009,6 0 0,0
22.10.2020 06:00:00 12,0 11,5 9 5 20 11 SSW 1009,6 0 0,0
22.10.2020 05:00:00 12,5 11,9 13 7 22 12 SSW 1009,6 0 0,0
22.10.2020 04:00:00 12,7 12,0 13 7 23 12 SSW 1009,2 0 0,0
22.10.2020 03:00:00 13,5 12,7 15 8 25 13 SSW 1009,0 0 0,0
22.10.2020 02:00:00 13,5 12,8 11 6 18 10 SSW 1008,7 0 0,0
22.10.2020 01:00:00 14,0 13,2 13 7 24 13 SSW 1007,8 0 0,0
22.10.2020 00:00:00 14,7 14,1 9 5 18 10 SW 1007,4 0 0,0
21.10.2020 23:00:00 14,8 14,2 10 5 20 11 SSW 1006,8 0 0,0
21.10.2020 22:00:00 14,9 14,1 13 7 34 19 SW 1005,9 0 0,0
21.10.2020 21:00:00 15,9 13,5 19 10 40 22 SW 1005,1 0 0,0
21.10.2020 20:00:00 16,1 13,7 22 12 50 27 SW 1004,0 0 0,5
21.10.2020 19:00:00 17,7 13,2 30 16 61 33 SW 1002,2 0 0,0
21.10.2020 18:00:00 18,2 13,4 29 16 58 32 SSW 1000,3 8 0,1
21.10.2020 17:00:00 18,7 13,5 36 20 69 37 SW 999,3 0 0,3
21.10.2020 16:00:00 19,6 13,8 39 21 79 43 SSW 998,3 14 0,1
21.10.2020 15:00:00 19,2 14,5 46 25 80 43 SSW 997,3 9 0,1
21.10.2020 14:00:00 19,8 14,3 43 23 74 40 SSW 996,5 25 0,0
21.10.2020 13:00:00 18,3 13,4 35 19 60 32 S 996,5 3 0,0
21.10.2020 12:00:00 16,6 12,5 29 16 49 27 S 996,7 5 0,0
21.10.2020 11:00:00 14,5 12,3 23 13 40 22 SSE 997,8 0 0,0
21.10.2020 10:00:00 13,1 13,1 17 9 35 19 SSE 999,3 0 1,9
21.10.2020 09:00:00 12,9 12,9 17 9 38 21 S 1000,0 0 1,8
21.10.2020 08:00:00 12,9 12,8 22 12 37 20 S 1000,2 0 1,9
21.10.2020 07:00:00 13,0 13,0 16 9 29 16 SSE 1001,1 0 2,6
21.10.2020 06:00:00 13,2 13,2 14 8 27 15 S 1001,9 0 1,8
21.10.2020 05:00:00 13,3 13,3 13 7 21 12 SSE 1002,5 0 1,0
21.10.2020 04:00:00 13,6 13,5 10 6 16 9 SSE 1003,1 0 0,2
21.10.2020 03:00:00 13,9 13,6 10 6 23 12 S 1004,2 0 0,2
21.10.2020 02:00:00 14,4 13,6 14 8 26 14 S 1004,3 0 0,0
21.10.2020 01:00:00 14,7 13,7 18 10 30 16 S 1004,8 0 0,0
21.10.2020 00:00:00 14,9 13,8 23 13 36 19 S 1005,2 0 0,0
20.10.2020 23:00:00 14,7 13,7 19 10 35 19 S 1005,6 0 0,0
20.10.2020 22:00:00 14,6 13,7 22 12 39 21 S 1005,6 0 0,0
20.10.2020 21:00:00 14,5 13,7 23 12 34 19 S 1006,0 0 0,1
20.10.2020 20:00:00 14,5 13,7 18 10 39 21 S 1006,4 0 0,2
20.10.2020 19:00:00 14,9 13,2 19 10 35 19 S 1006,3 0 0,0
20.10.2020 18:00:00 15,2 12,9 19 10 39 21 S 1006,5 0 0,0
20.10.2020 17:00:00 15,4 12,6 21 11 35 19 S 1006,7 0 0,0
20.10.2020 16:00:00 14,9 12,3 19 11 34 18 S 1006,7 0 0,1
20.10.2020 15:00:00 14,1 12,4 19 10 36 20 S 1007,2 0 0,0
20.10.2020 14:00:00 14,1 11,8 25 14 39 21 SSW 1007,4 0 0,0
20.10.2020 13:00:00 14,0 11,5 18 10 37 20 S 1007,6 3 0,0
20.10.2020 12:00:00 13,2 10,8 22 12 32 17 S 1007,3 1 0,0
20.10.2020 11:00:00 12,2 9,8 17 9 30 16 SSW 1007,7 0 0,0
20.10.2020 10:00:00 11,8 9,2 17 9 27 15 S 1007,3 0 0,0
20.10.2020 09:00:00 11,3 8,5 17 9 29 16 S 1007,2 0 0,0
20.10.2020 08:00:00 11,3 8,2 18 10 34 19 S 1007,0 0 0,0
20.10.2020 07:00:00 10,7 7,7 18 10 28 15 S 1007,0 0 0,0
20.10.2020 06:00:00 10,3 7,4 18 10 29 16 S 1007,8 0 0,0
20.10.2020 05:00:00 9,9 7,1 15 8 26 14 S 1007,9 0 0,0
20.10.2020 04:00:00 9,8 6,6 13 7 27 14 SSE 1008,7 0 0,0
20.10.2020 03:00:00 9,9 6,2 14 7 22 12 SSE 1009,4 0 0,0
20.10.2020 02:00:00 10,0 6,2 14 8 22 12 SSE 1010,4 0 0,0
20.10.2020 01:00:00 9,7 6,7 10 5 19 11 SSE 1011,6 0 0,0
20.10.2020 00:00:00 10,1 7,2 13 7 23 13 SE 1012,2 0 0,0
19.10.2020 23:00:00 10,4 7,9 11 6 19 11 ESE 1013,0 0 0,0
19.10.2020 22:00:00 10,7 8,3 8 5 18 10 ESE 1014,1 0 0,0
19.10.2020 21:00:00 11,2 8,1 12 6 26 14 SE 1014,6 0 0,0
19.10.2020 20:00:00 11,6 8,3 11 6 19 10 SE 1015,5 0 0,0
19.10.2020 19:00:00 12,0 8,4 14 7 28 15 SE 1015,8 0 0,0
19.10.2020 18:00:00 12,9 8,5 16 9 26 14 SE 1016,3 37 0,0
19.10.2020 17:00:00 13,7 7,7 12 6 27 15 S 1017,4 60 0,0
19.10.2020 16:00:00 14,5 8,1 16 8 26 14 S 1018,4 55 0,0
19.10.2020 15:00:00 13,4 8,3 15 8 31 17 SSW 1018,9 38 0,0
19.10.2020 14:00:00 13,8 8,5 18 10 28 15 S 1020,0 58 0,0
19.10.2020 13:00:00 13,2 9,2 18 10 28 15 S 1021,1 60 0,0
19.10.2020 12:00:00 12,1 9,7 12 6 19 10 S 1021,5 59 0,0
19.10.2020 11:00:00 10,3 9,1 9 5 16 9 SSE 1021,6 13 0,0
19.10.2020 10:00:00 9,0 7,8 9 5 15 8 S 1022,1 0 0,0
19.10.2020 09:00:00 8,7 7,5 6 3 11 6 SSE 1021,8 0 0,0
19.10.2020 08:00:00 8,6 7,3 7 4 9 5 SSE 1021,7 0 0,0
19.10.2020 07:00:00 8,7 7,7 4 2 8 4 S 1022,2 0 0,0
19.10.2020 06:00:00 8,9 8,4 6 4 9 5 SSE 1022,4 0 0,0
19.10.2020 05:00:00 8,9 8,5 4 2 10 6 SSE 1022,7 0 0,0
19.10.2020 04:00:00 9,2 8,9 9 5 17 9 S 1023,1 0 0,0
19.10.2020 03:00:00 9,0 8,9 4 2 8 5 S 1023,6 0 0,0
19.10.2020 02:00:00 9,1 9,0 4 2 5 3 SE 1023,6 0 0,0
19.10.2020 01:00:00 9,0 8,9 0 0 4 2 N 1023,9 0 0,0
19.10.2020 00:00:00 9,1 8,9 4 2 8 4 W 1024,0 0 0,0
18.10.2020 23:00:00 8,7 8,5 5 3 7 4 SSW 1024,0 0 0,0
18.10.2020 22:00:00 8,1 8,1 4 2 7 4 W 1023,9 0 0,0
18.10.2020 21:00:00 7,3 7,3 4 2 6 3 WSW 1023,7 0 0,0
18.10.2020 20:00:00 9,3 8,7 4 2 6 3 SSW 1023,8 0 0,0
18.10.2020 19:00:00 10,7 8,9 0 0 11 6 N 1023,5 0 0,0
18.10.2020 18:00:00 11,2 8,6 9 5 20 11 NNW 1023,4 0 0,1
18.10.2020 17:00:00 12,6 8,5 10 5 16 9 W 1023,2 0 0,0
18.10.2020 16:00:00 11,9 9,5 8 4 18 10 WNW 1023,1 0 0,1
18.10.2020 15:00:00 13,0 9,9 4 2 16 9 W 1023,2 0 0,0
18.10.2020 14:00:00 12,4 10,7 11 6 17 9 W 1023,7 0 0,0
18.10.2020 13:00:00 12,5 9,9 8 4 17 9 NW 1024,3 6 0,0
18.10.2020 12:00:00 12,0 11,0 10 5 17 9 WNW 1023,9 17 0,0
18.10.2020 11:00:00 10,9 10,3 8 5 13 7 WSW 1023,6 0 0,0
18.10.2020 10:00:00 10,2 10,0 5 3 10 6 WSW 1023,4 1 0,0
18.10.2020 09:00:00 9,2 9,2 7 4 16 8 W 1022,9 0 0,0
18.10.2020 08:00:00 9,4 9,4 4 2 8 4 W 1022,5 0 0,0
18.10.2020 07:00:00 9,5 9,5 4 2 8 5 SW 1022,2 0 0,0
18.10.2020 06:00:00 9,4 9,4 4 2 6 4 SW 1022,5 0 0,0
18.10.2020 05:00:00 9,3 9,3 4 2 11 6 WSW 1022,5 0 0,0
18.10.2020 04:00:00 9,3 9,3 9 5 17 9 SW 1022,5 0 0,0
18.10.2020 03:00:00 9,4 9,4 8 4 10 6 SSW 1022,7 0 0,3
18.10.2020 02:00:00 9,5 9,4 4 2 10 5 W 1022,9 0 0,0
18.10.2020 01:00:00 9,4 9,4 7 4 10 5 SW 1022,7 0 0,0
18.10.2020 00:00:00 9,2 9,2 5 3 6 4 SSW 1022,6 0 0,1

tt = temperature
td = dewpoint
ff = wind speed
fx = gusts
dd = wind direction
ppp = reduced air pressure
sd = sunshine duration
rr = precipitation

Next stations